createdAt,value
2023-12-05T00:00:30.765Z,12.63
2023-12-05T00:02:58.408Z,13.95
2023-12-05T00:05:25.191Z,11.95
2023-12-05T00:07:52.001Z,10.52
2023-12-05T00:10:18.761Z,14.43
2023-12-05T00:12:45.589Z,14.05
2023-12-05T00:15:12.424Z,14.85
2023-12-05T00:17:39.297Z,14.07
2023-12-05T00:20:07.209Z,13.77
2023-12-05T00:22:34.784Z,14.15
2023-12-05T00:25:01.607Z,11.95
2023-12-05T00:27:28.494Z,12.15
2023-12-05T00:29:55.598Z,13.80
2023-12-05T00:32:22.383Z,11.20
2023-12-05T00:34:49.293Z,11.60
2023-12-05T00:37:16.212Z,9.95
2023-12-05T00:39:42.978Z,9.68
2023-12-05T00:42:09.905Z,12.50
2023-12-05T00:44:36.769Z,11.80
2023-12-05T00:47:06.214Z,14.35
2023-12-05T00:49:36.682Z,12.05
2023-12-05T00:52:03.849Z,10.93
2023-12-05T00:54:31.020Z,10.55
2023-12-05T00:56:57.765Z,12.50
2023-12-05T00:59:24.846Z,13.18
2023-12-05T01:01:51.819Z,11.77
2023-12-05T01:04:19.311Z,14.23
2023-12-05T01:06:46.240Z,12.02
2023-12-05T01:09:13.414Z,11.93
2023-12-05T01:11:40.849Z,12.13
2023-12-05T01:14:07.662Z,11.68
2023-12-05T01:16:35.205Z,12.65
2023-12-05T01:19:02.360Z,11.88
2023-12-05T01:21:29.210Z,11.68
2023-12-05T01:23:56.016Z,11.80
2023-12-05T01:26:22.782Z,11.13
2023-12-05T01:28:49.855Z,13.10
2023-12-05T01:31:17.725Z,11.48
2023-12-05T01:33:45.019Z,13.13
2023-12-05T01:36:12.521Z,12.82
2023-12-05T01:38:40.587Z,10.95
2023-12-05T01:41:08.709Z,12.00
2023-12-05T01:43:35.549Z,12.43
2023-12-05T01:46:03.381Z,10.75
2023-12-05T01:48:33.614Z,11.45
2023-12-05T01:51:03.689Z,10.55
2023-12-05T01:56:00.497Z,11.52
2023-12-05T01:58:28.281Z,10.95
2023-12-05T02:00:55.226Z,11.65
2023-12-05T02:03:22.208Z,10.63
2023-12-05T02:05:49.818Z,12.35
2023-12-05T02:08:19.504Z,11.40
2023-12-05T02:10:46.360Z,10.38
2023-12-05T02:13:13.264Z,10.57
2023-12-05T02:15:40.198Z,11.00
2023-12-05T02:18:19.927Z,11.05
2023-12-05T02:20:58.875Z,12.27
2023-12-05T02:23:59.338Z,9.75
2023-12-05T02:26:42.994Z,9.63
2023-12-05T02:29:09.766Z,12.68
2023-12-05T02:31:36.507Z,10.05
2023-12-05T02:34:03.478Z,11.57
2023-12-05T02:36:46.366Z,8.68
2023-12-05T02:39:18.942Z,10.15
2023-12-05T02:41:53.235Z,9.68
2023-12-05T02:44:23.867Z,9.88
2023-12-05T02:46:52.232Z,11.10
2023-12-05T02:49:19.442Z,13.25
2023-12-05T02:51:46.662Z,11.18
2023-12-05T02:54:13.508Z,13.30
2023-12-05T02:56:41.307Z,10.18
2023-12-05T02:59:08.113Z,13.38
2023-12-05T03:01:40.506Z,11.48
2023-12-05T03:04:07.753Z,12.07
2023-12-05T03:06:34.764Z,9.63
2023-12-05T03:09:04.731Z,9.38
2023-12-05T03:11:32.337Z,9.70
2023-12-05T03:14:00.323Z,11.77
2023-12-05T03:16:28.115Z,10.75
2023-12-05T03:18:55.292Z,10.27
2023-12-05T03:21:22.680Z,12.10
2023-12-05T03:23:49.616Z,12.85
2023-12-05T03:26:23.342Z,12.80
2023-12-05T03:28:51.114Z,12.43
2023-12-05T03:31:18.651Z,12.90
2023-12-05T03:33:45.585Z,13.68
2023-12-05T03:36:13.412Z,13.15
2023-12-05T03:38:44.028Z,12.68
2023-12-05T03:41:19.835Z,12.50
2023-12-05T03:43:46.664Z,11.70
2023-12-05T03:46:13.947Z,13.20
2023-12-05T03:48:42.734Z,14.23
2023-12-05T03:51:09.515Z,13.18
2023-12-05T03:53:36.408Z,11.90
2023-12-05T03:56:03.220Z,11.68
2023-12-05T03:58:30.053Z,11.15
2023-12-05T04:00:56.981Z,12.25
2023-12-05T04:03:24.434Z,13.02
2023-12-05T04:05:51.368Z,15.02
2023-12-05T04:08:18.147Z,13.15
2023-12-05T04:10:45.082Z,13.45
2023-12-05T04:13:11.843Z,13.77
2023-12-05T04:15:40.379Z,13.18
2023-12-05T04:18:07.329Z,13.20
2023-12-05T04:20:34.409Z,13.15
2023-12-05T04:23:01.232Z,13.60
2023-12-05T04:25:27.966Z,12.20
2023-12-05T04:27:54.804Z,11.68
2023-12-05T04:30:23.106Z,10.88
2023-12-05T04:32:50.086Z,12.75
2023-12-05T04:35:16.935Z,14.40
2023-12-05T04:37:44.024Z,13.73
2023-12-05T04:40:11.132Z,14.00
2023-12-05T04:42:38.650Z,13.57
2023-12-05T04:45:06.102Z,13.60
2023-12-05T04:47:33.432Z,14.93
2023-12-05T04:50:00.268Z,12.32
2023-12-05T04:52:27.414Z,13.25
2023-12-05T04:54:54.180Z,14.23
2023-12-05T04:57:20.983Z,14.43
2023-12-05T04:59:47.981Z,13.30
2023-12-05T05:02:14.946Z,12.57
2023-12-05T05:04:42.195Z,14.65
2023-12-05T05:07:09.209Z,11.10
2023-12-05T05:09:37.657Z,11.82
2023-12-05T05:12:05.075Z,10.52
2023-12-05T05:14:31.763Z,13.98
2023-12-05T05:16:59.006Z,10.65
2023-12-05T05:19:26.016Z,14.02
2023-12-05T05:21:52.882Z,13.10
2023-12-05T05:24:19.727Z,11.15
2023-12-05T05:26:46.507Z,14.35
2023-12-05T05:29:13.346Z,13.63
2023-12-05T05:31:40.215Z,12.88
2023-12-05T05:34:07.116Z,15.88
2023-12-05T05:36:34.165Z,12.98
2023-12-05T05:39:01.992Z,11.52
2023-12-05T05:41:29.109Z,14.25
2023-12-05T05:43:56.395Z,14.02
2023-12-05T05:46:23.174Z,13.88
2023-12-05T05:48:50.012Z,12.80
2023-12-05T05:51:16.952Z,13.93
2023-12-05T05:53:43.723Z,12.57
2023-12-05T05:56:11.060Z,14.77
2023-12-05T05:58:37.861Z,13.82
2023-12-05T06:01:05.208Z,16.05
2023-12-05T06:03:32.804Z,13.70
2023-12-05T06:06:02.836Z,12.15
2023-12-05T06:08:30.866Z,14.73
2023-12-05T06:10:57.621Z,15.00
2023-12-05T06:13:24.974Z,15.65
2023-12-05T06:15:52.375Z,14.80
2023-12-05T06:18:19.188Z,15.00
2023-12-05T06:20:47.752Z,12.82
2023-12-05T06:23:14.480Z,19.13
2023-12-05T06:25:41.341Z,16.40
2023-12-05T06:28:08.193Z,15.20
2023-12-05T06:30:35.170Z,14.07
2023-12-05T06:33:02.176Z,14.95
2023-12-05T06:35:29.103Z,16.70
2023-12-05T06:37:55.849Z,16.77
2023-12-05T06:40:22.604Z,16.67
2023-12-05T06:42:50.206Z,15.70
2023-12-05T06:45:17.169Z,18.15
2023-12-05T06:47:44.192Z,15.98
2023-12-05T06:50:12.936Z,15.45
2023-12-05T06:52:41.692Z,16.05
2023-12-05T06:55:09.573Z,13.68
2023-12-05T06:57:36.648Z,14.75
2023-12-05T07:00:05.338Z,14.55
2023-12-05T07:02:32.199Z,15.90
2023-12-05T07:05:00.132Z,15.27
2023-12-05T07:07:27.250Z,15.15
2023-12-05T07:09:54.081Z,15.50
2023-12-05T07:12:20.978Z,17.25
2023-12-05T07:14:47.909Z,17.08
2023-12-05T07:17:14.684Z,17.48
2023-12-05T07:19:41.478Z,14.88
2023-12-05T07:22:08.528Z,17.73
2023-12-05T07:24:35.272Z,15.73
2023-12-05T07:27:02.258Z,15.90
2023-12-05T07:29:29.422Z,17.95
2023-12-05T07:31:56.596Z,17.05
2023-12-05T07:34:23.471Z,16.83
2023-12-05T07:36:50.263Z,17.30
2023-12-05T07:39:17.163Z,17.75
2023-12-05T07:41:44.279Z,16.98
2023-12-05T07:44:11.991Z,20.52
2023-12-05T07:46:43.041Z,17.90
2023-12-05T07:49:11.143Z,17.45
2023-12-05T07:51:39.007Z,16.70
2023-12-05T07:54:06.732Z,16.77
2023-12-05T07:56:33.782Z,18.13
2023-12-05T07:59:00.830Z,18.90
2023-12-05T08:01:28.088Z,17.73
2023-12-05T08:03:55.160Z,18.50
2023-12-05T08:06:22.572Z,20.25
2023-12-05T08:08:49.450Z,20.30
2023-12-05T08:11:16.514Z,20.60
2023-12-05T08:13:43.302Z,21.45
2023-12-05T08:16:10.369Z,23.95
2023-12-05T08:18:37.616Z,22.50
2023-12-05T08:21:05.026Z,23.45
2023-12-05T08:23:31.821Z,22.77
2023-12-05T08:25:58.551Z,21.73
2023-12-05T08:28:25.721Z,21.38
2023-12-05T08:30:52.487Z,21.95
2023-12-05T08:33:19.848Z,24.17
2023-12-05T08:35:47.485Z,21.17
2023-12-05T08:38:14.229Z,22.02
2023-12-05T08:40:40.949Z,22.67
2023-12-05T08:43:07.767Z,21.95
2023-12-05T08:45:34.613Z,23.52
2023-12-05T08:48:01.506Z,23.63
2023-12-05T08:50:28.535Z,26.00
2023-12-05T08:52:56.147Z,23.73
2023-12-05T08:55:22.992Z,21.73
2023-12-05T08:57:49.898Z,22.05
2023-12-05T09:00:17.167Z,23.05
2023-12-05T09:02:44.021Z,19.95
2023-12-05T09:05:10.865Z,20.98
2023-12-05T09:07:39.273Z,18.20
2023-12-05T09:10:06.892Z,18.33
2023-12-05T09:12:33.874Z,17.65
2023-12-05T09:15:00.778Z,16.27
2023-12-05T09:17:27.835Z,17.60
2023-12-05T09:19:54.629Z,15.93
2023-12-05T09:22:21.979Z,17.45
2023-12-05T09:24:48.905Z,18.77
2023-12-05T09:27:15.681Z,16.85
2023-12-05T09:29:50.038Z,18.40
2023-12-05T09:32:18.940Z,18.33
2023-12-05T09:34:46.364Z,20.13
2023-12-05T09:37:14.393Z,19.70
2023-12-05T09:39:41.674Z,20.02
2023-12-05T09:42:13.613Z,20.83
2023-12-05T09:44:45.607Z,21.05
2023-12-05T09:47:16.220Z,21.23
2023-12-05T09:49:43.731Z,19.38
2023-12-05T09:52:12.102Z,21.02
2023-12-05T09:54:43.764Z,23.70
2023-12-05T09:57:13.457Z,21.20
2023-12-05T09:59:40.443Z,21.65
2023-12-05T10:02:08.371Z,21.38
2023-12-05T10:04:46.665Z,19.05
2023-12-05T10:07:14.624Z,19.00
2023-12-05T10:09:45.490Z,18.05
2023-12-05T10:12:13.260Z,18.08
2023-12-05T10:14:40.770Z,19.90
2023-12-05T10:17:09.063Z,17.35
2023-12-05T10:19:37.074Z,18.83
2023-12-05T10:22:05.120Z,17.10
2023-12-05T10:24:46.904Z,16.48
2023-12-05T10:27:14.122Z,15.35
2023-12-05T10:29:42.691Z,16.23
2023-12-05T10:32:11.219Z,17.15
2023-12-05T10:34:55.141Z,11.88
2023-12-05T10:37:26.650Z,12.45
2023-12-05T10:40:00.738Z,14.40
2023-12-05T10:42:30.158Z,15.65
2023-12-05T10:45:20.260Z,13.30
2023-12-05T10:50:14.283Z,12.70
2023-12-05T10:52:41.111Z,13.20
2023-12-05T10:55:08.495Z,10.95
2023-12-05T10:57:35.852Z,11.02
2023-12-05T11:00:07.754Z,11.07
2023-12-05T11:02:37.632Z,11.15
2023-12-05T11:05:05.693Z,12.55
2023-12-05T11:07:32.606Z,11.40
2023-12-05T11:09:59.501Z,13.25
2023-12-05T11:12:26.914Z,11.93
2023-12-05T11:14:58.440Z,12.27
2023-12-05T11:17:40.367Z,11.63
2023-12-05T11:20:31.610Z,11.73
2023-12-05T11:23:04.256Z,12.82
2023-12-05T11:25:34.035Z,11.63
2023-12-05T11:28:43.780Z,11.15
2023-12-05T11:31:26.240Z,10.88
2023-12-05T11:34:08.128Z,11.48
2023-12-05T11:37:00.301Z,11.73
2023-12-05T11:39:27.841Z,11.68
2023-12-05T11:42:15.709Z,11.25
2023-12-05T11:44:43.576Z,9.65
2023-12-05T11:47:24.484Z,9.30
2023-12-05T11:49:57.713Z,10.45
2023-12-05T11:52:28.542Z,10.88
2023-12-05T11:54:56.309Z,10.90
2023-12-05T11:57:25.422Z,10.73
2023-12-05T11:59:53.702Z,9.23
2023-12-05T12:02:40.877Z,10.45
2023-12-05T12:05:10.876Z,10.57
2023-12-05T12:07:53.815Z,9.18
2023-12-05T12:10:21.350Z,10.88
2023-12-05T12:12:48.335Z,10.50
2023-12-05T12:15:20.468Z,11.50
2023-12-05T12:17:47.365Z,12.02
2023-12-05T12:20:18.771Z,11.52
2023-12-05T12:22:50.670Z,11.77
2023-12-05T12:25:18.876Z,10.77
2023-12-05T12:27:46.015Z,10.80
2023-12-05T12:30:19.721Z,11.30
2023-12-05T12:32:55.468Z,9.73
2023-12-05T12:35:23.672Z,11.70
2023-12-05T12:37:54.783Z,12.82
2023-12-05T12:40:23.103Z,12.40
2023-12-05T12:42:56.801Z,11.60
2023-12-05T12:45:26.658Z,14.02
2023-12-05T12:47:53.957Z,13.00
2023-12-05T12:50:21.176Z,12.77
2023-12-05T12:52:49.749Z,14.27
2023-12-05T12:55:17.997Z,13.45
2023-12-05T12:57:45.303Z,11.48
2023-12-05T13:00:31.439Z,11.70
2023-12-05T13:03:02.136Z,13.80
2023-12-05T13:05:34.212Z,13.13
2023-12-05T13:08:01.634Z,14.50
2023-12-05T13:10:32.227Z,13.10
2023-12-05T13:13:00.390Z,11.70
2023-12-05T13:15:29.185Z,13.93
2023-12-05T13:18:05.020Z,13.18
2023-12-05T13:20:33.245Z,11.95
2023-12-05T13:23:01.748Z,12.30
2023-12-05T13:25:35.169Z,12.57
2023-12-05T13:28:06.790Z,11.75
2023-12-05T13:30:35.121Z,12.80
2023-12-05T13:33:02.665Z,12.13
2023-12-05T13:35:29.543Z,12.63
2023-12-05T13:37:56.609Z,12.82
2023-12-05T13:40:23.404Z,19.38
2023-12-05T13:42:50.201Z,21.92
2023-12-05T13:45:20.696Z,23.42
2023-12-05T13:47:48.557Z,24.05
2023-12-05T13:50:15.350Z,21.58
2023-12-05T13:52:42.219Z,20.00
2023-12-05T13:55:09.160Z,20.92
2023-12-05T13:57:39.398Z,19.15
2023-12-05T14:00:06.999Z,20.30
2023-12-05T14:02:34.620Z,19.33
2023-12-05T14:05:01.615Z,22.35
2023-12-05T14:07:29.203Z,19.98
2023-12-05T14:09:56.624Z,22.05
2023-12-05T14:12:24.047Z,17.48
2023-12-05T14:14:56.813Z,23.58
2023-12-05T14:17:23.723Z,19.98
2023-12-05T14:19:52.137Z,20.80
2023-12-05T14:22:19.182Z,22.77
2023-12-05T14:24:46.171Z,23.10
2023-12-05T14:27:13.069Z,21.38
2023-12-05T14:29:39.801Z,22.50
2023-12-05T14:32:07.717Z,24.58
2023-12-05T14:34:34.487Z,21.75
2023-12-05T14:37:01.824Z,24.88
2023-12-05T14:39:28.621Z,25.45
2023-12-05T14:41:55.592Z,29.08
2023-12-05T14:44:22.397Z,19.00
2023-12-05T14:46:49.326Z,22.23
2023-12-05T14:49:17.578Z,19.95
2023-12-05T14:51:44.822Z,19.27
2023-12-05T14:54:11.634Z,20.13
2023-12-05T14:56:39.894Z,20.02
2023-12-05T14:59:06.985Z,22.67
2023-12-05T15:01:34.031Z,20.15
2023-12-05T15:04:00.962Z,20.30
2023-12-05T15:06:27.815Z,21.67
2023-12-05T15:08:56.602Z,21.23
2023-12-05T15:11:27.146Z,20.92
2023-12-05T15:13:54.023Z,19.30
2023-12-05T15:16:21.226Z,22.60
2023-12-05T15:18:48.208Z,16.58
2023-12-05T15:21:15.834Z,18.02
2023-12-05T15:23:52.121Z,15.50
2023-12-05T15:26:19.824Z,14.13
2023-12-05T15:28:48.332Z,16.48
2023-12-05T15:31:19.512Z,15.73
2023-12-05T15:33:46.516Z,18.25
2023-12-05T15:36:14.136Z,18.90
2023-12-05T15:38:43.723Z,19.27
2023-12-05T15:41:14.796Z,20.75
2023-12-05T15:43:43.169Z,18.13
2023-12-05T15:46:09.999Z,19.27
2023-12-05T15:48:44.577Z,17.23
2023-12-05T15:51:13.754Z,14.80
2023-12-05T15:53:41.652Z,15.77
2023-12-05T15:56:09.438Z,16.90
2023-12-05T15:58:36.246Z,16.15
2023-12-05T16:01:03.311Z,16.67
2023-12-05T16:03:30.574Z,17.95
2023-12-05T16:05:57.336Z,14.82
2023-12-05T16:08:24.478Z,16.10
2023-12-05T16:10:53.659Z,16.10
2023-12-05T16:13:21.338Z,15.75
2023-12-05T16:15:49.237Z,15.38
2023-12-05T16:18:16.098Z,17.83
2023-12-05T16:20:43.016Z,17.52
2023-12-05T16:23:09.961Z,18.08
2023-12-05T16:25:36.875Z,13.45
2023-12-05T16:28:03.860Z,17.98
2023-12-05T16:30:30.711Z,18.98
2023-12-05T16:32:57.587Z,17.42
2023-12-05T16:35:24.568Z,17.60
2023-12-05T16:37:51.343Z,18.42
2023-12-05T16:40:18.156Z,17.13
2023-12-05T16:42:45.024Z,16.35
2023-12-05T16:45:12.229Z,18.27
2023-12-05T16:47:41.003Z,19.05
2023-12-05T16:50:08.363Z,18.33
2023-12-05T16:52:35.223Z,16.27
2023-12-05T16:55:02.329Z,20.38
2023-12-05T16:57:30.144Z,18.58
2023-12-05T16:59:57.286Z,22.73
2023-12-05T17:02:24.221Z,20.67
2023-12-05T17:04:52.462Z,20.35
2023-12-05T17:07:20.019Z,20.13
2023-12-05T17:09:47.503Z,24.30
2023-12-05T17:12:15.742Z,21.80
2023-12-05T17:14:42.560Z,17.50
2023-12-05T17:17:09.393Z,19.02
2023-12-05T17:19:36.603Z,22.85
2023-12-05T17:22:05.160Z,22.23
2023-12-05T17:24:32.022Z,24.42
2023-12-05T17:26:58.864Z,23.30
2023-12-05T17:29:25.602Z,23.58
2023-12-05T17:31:52.353Z,23.15
2023-12-05T17:34:19.276Z,41.75
2023-12-05T17:36:46.148Z,27.00
2023-12-05T17:39:12.979Z,26.30
2023-12-05T17:41:39.807Z,26.92
2023-12-05T17:44:07.086Z,25.83
2023-12-05T17:46:33.971Z,27.77
2023-12-05T17:49:00.903Z,24.88
2023-12-05T17:51:28.170Z,26.02
2023-12-05T17:53:55.022Z,27.92
2023-12-05T17:56:21.790Z,23.42
2023-12-05T17:58:49.812Z,27.27
2023-12-05T18:01:17.180Z,27.23
2023-12-05T18:03:44.442Z,26.80
2023-12-05T18:06:12.591Z,36.05
2023-12-05T18:08:41.815Z,29.73
2023-12-05T18:11:09.919Z,28.40
2023-12-05T18:13:38.028Z,29.48
2023-12-05T18:16:06.600Z,29.13
2023-12-05T18:18:33.574Z,26.20
2023-12-05T18:21:00.572Z,27.63
2023-12-05T18:23:27.374Z,26.73
2023-12-05T18:25:55.546Z,28.52
2023-12-05T18:28:22.333Z,30.05
2023-12-05T18:30:49.157Z,31.05
2023-12-05T18:33:16.120Z,30.38
2023-12-05T18:35:43.637Z,34.10
2023-12-05T18:38:11.488Z,37.08
2023-12-05T18:40:38.273Z,29.65
2023-12-05T18:43:05.248Z,35.78
2023-12-05T18:45:33.174Z,33.78
2023-12-05T18:48:00.354Z,35.63
2023-12-05T18:50:27.204Z,37.92
2023-12-05T18:52:54.032Z,35.58
2023-12-05T18:55:21.202Z,23.80
2023-12-05T18:57:49.159Z,30.00
2023-12-05T19:00:16.493Z,30.42
2023-12-05T19:02:43.477Z,29.90
2023-12-05T19:05:10.268Z,32.78
2023-12-05T19:07:37.111Z,26.08
2023-12-05T19:10:04.443Z,28.60
2023-12-05T19:12:31.395Z,31.98
2023-12-05T19:14:59.028Z,28.42
2023-12-05T19:17:28.126Z,22.40
2023-12-05T19:19:55.013Z,31.13
2023-12-05T19:22:22.186Z,30.13
2023-12-05T19:24:49.266Z,28.42
2023-12-05T19:31:00.553Z,24.48
2023-12-05T19:33:27.596Z,30.55
2023-12-05T19:35:54.537Z,30.20
2023-12-05T19:38:21.608Z,24.88
2023-12-05T19:40:49.227Z,28.08
2023-12-05T19:43:16.269Z,27.27
2023-12-05T19:45:43.317Z,21.90
2023-12-05T19:48:15.311Z,29.67
2023-12-05T19:50:42.491Z,21.13
2023-12-05T19:53:09.338Z,25.70
2023-12-05T19:55:36.684Z,21.15
2023-12-05T19:58:07.149Z,27.17
2023-12-05T20:00:34.558Z,23.65
2023-12-05T20:03:02.634Z,26.77
2023-12-05T20:05:29.520Z,26.92
2023-12-05T20:07:56.324Z,24.33
2023-12-05T20:10:24.293Z,24.63
2023-12-05T20:12:51.176Z,27.20
2023-12-05T20:15:18.689Z,28.45
2023-12-05T20:17:46.275Z,29.48
2023-12-05T20:20:14.538Z,30.27
2023-12-05T20:22:41.826Z,27.80
2023-12-05T20:25:08.915Z,30.25
2023-12-05T20:27:36.451Z,30.15
2023-12-05T20:30:04.339Z,26.67
2023-12-05T20:32:31.052Z,29.52
2023-12-05T20:34:57.948Z,31.80
2023-12-05T20:37:24.686Z,25.60
2023-12-05T20:40:35.886Z,28.45
2023-12-05T20:43:02.763Z,33.78
2023-12-05T20:45:30.127Z,27.70
2023-12-05T20:47:58.675Z,26.00
2023-12-05T20:50:25.923Z,23.50
2023-12-05T20:53:00.409Z,21.10
2023-12-05T20:55:28.093Z,24.25
2023-12-05T20:58:17.867Z,23.17
2023-12-05T21:00:45.905Z,21.48
2023-12-05T21:03:13.586Z,24.05
2023-12-05T21:05:42.143Z,24.42
2023-12-05T21:08:15.637Z,23.70
2023-12-05T21:10:42.844Z,25.08
2023-12-05T21:13:09.788Z,25.60
2023-12-05T21:15:37.450Z,26.05
2023-12-05T21:18:05.088Z,24.83
2023-12-05T21:20:31.948Z,24.90
2023-12-05T21:22:58.696Z,24.33
2023-12-05T21:25:25.597Z,22.30
2023-12-05T21:27:52.485Z,25.58
2023-12-05T21:31:21.467Z,23.95
2023-12-05T21:33:48.271Z,23.23
2023-12-05T21:36:26.894Z,23.95
2023-12-05T21:38:58.569Z,25.50
2023-12-05T21:41:26.690Z,25.38
2023-12-05T21:43:53.538Z,24.13
2023-12-05T21:46:25.206Z,24.08
2023-12-05T21:48:52.272Z,25.38
2023-12-05T21:51:19.161Z,26.42
2023-12-05T21:53:45.973Z,27.73
2023-12-05T21:56:15.422Z,25.15
2023-12-05T21:58:42.140Z,27.63
2023-12-05T22:01:13.140Z,26.60
2023-12-05T22:03:40.918Z,25.33
2023-12-05T22:06:08.377Z,25.85
2023-12-05T22:08:35.423Z,21.95
2023-12-05T22:11:02.992Z,23.02
2023-12-05T22:13:33.895Z,27.10
2023-12-05T22:16:02.538Z,28.90
2023-12-05T22:18:29.984Z,29.05
2023-12-05T22:20:57.756Z,25.98
2023-12-05T22:23:25.845Z,31.25
2023-12-05T22:25:53.458Z,29.35
2023-12-05T22:28:20.283Z,28.77
2023-12-05T22:30:47.150Z,23.70
2023-12-05T22:33:15.375Z,25.00
2023-12-05T22:35:43.574Z,24.73
2023-12-05T22:38:10.619Z,26.40
2023-12-05T22:40:37.668Z,21.45
2023-12-05T22:43:04.605Z,25.88
2023-12-05T22:45:31.436Z,23.02
2023-12-05T22:47:58.305Z,26.38
2023-12-05T22:50:25.133Z,23.90
2023-12-05T22:52:53.178Z,26.98
2023-12-05T22:55:20.661Z,26.63
2023-12-05T22:57:47.830Z,26.95
2023-12-05T23:00:21.248Z,26.92
2023-12-05T23:02:49.082Z,28.83
2023-12-05T23:05:15.948Z,29.85
2023-12-05T23:07:42.805Z,28.15
2023-12-05T23:10:09.809Z,30.08
2023-12-05T23:12:37.611Z,30.77
2023-12-05T23:15:04.700Z,32.25
2023-12-05T23:17:31.589Z,30.63
2023-12-05T23:19:58.445Z,32.28
2023-12-05T23:22:25.201Z,30.08
2023-12-05T23:24:52.646Z,29.25
2023-12-05T23:27:19.621Z,29.95
2023-12-05T23:29:47.295Z,29.73
2023-12-05T23:32:14.173Z,28.13
2023-12-05T23:34:40.936Z,30.02
2023-12-05T23:37:07.740Z,30.02
2023-12-05T23:39:34.547Z,29.92
2023-12-05T23:42:01.278Z,32.53
2023-12-05T23:44:28.171Z,29.40
2023-12-05T23:46:55.732Z,33.10
2023-12-05T23:49:22.592Z,31.52
2023-12-05T23:51:49.409Z,32.40
2023-12-05T23:54:16.484Z,28.13
2023-12-05T23:56:43.300Z,32.67
2023-12-05T23:59:10.054Z,32.58
